Time;durP1;ratioP1;P1;durP2;ratioP2;P2;SDS_P1;SDS_P2;PMS_P1;PMS_P2;Temp;Humidity;BMP_temperature;BMP_pressure;BME280_temperature;BME280_humidity;BME280_pressure;Samples;Min_cycle;Max_cycle;Signal;HPM_P1;HPM_P2
2023/11/10 00:00:41;;;;;;;2.50;0.73;;;;;;;19.47;46.78;99560.78;5001336;28;20200;-67
2023/11/10 00:03:06;;;;;;;3.47;1.10;;;;;;;19.45;46.77;99553.97;5014930;28;20052;-66
2023/11/10 00:05:32;;;;;;;2.55;0.80;;;;;;;19.46;46.81;99550.38;5005469;28;20543;-67
2023/11/10 00:07:57;;;;;;;2.60;0.90;;;;;;;19.44;46.58;99547.03;5014512;28;20034;-66
2023/11/10 00:10:23;;;;;;;4.25;1.00;;;;;;;19.42;46.49;99541.91;5003442;28;20072;-66
2023/11/10 00:12:49;;;;;;;2.17;0.70;;;;;;;19.43;46.56;99540.94;5001189;28;20026;-66
2023/11/10 00:15:14;;;;;;;2.70;0.95;;;;;;;19.42;46.61;99535.81;5007552;28;20045;-66
2023/11/10 00:17:39;;;;;;;2.28;0.85;;;;;;;19.40;46.53;99539.44;5004881;28;20046;-67
2023/11/10 00:20:07;;;;;;;1.73;0.73;;;;;;;19.40;46.46;99534.16;5001521;28;20120;-66
2023/11/10 00:22:33;;;;;;;1.98;0.80;;;;;;;19.40;46.51;99520.13;5016315;28;20025;-67
2023/11/10 00:24:58;;;;;;;2.17;0.75;;;;;;;19.39;46.43;99523.75;5017577;28;20041;-66
2023/11/10 00:27:23;;;;;;;3.00;1.08;;;;;;;19.39;46.53;99519.31;5008303;28;20049;-66
2023/11/10 00:29:49;;;;;;;2.80;0.90;;;;;;;19.37;46.25;99526.56;5002874;28;20041;-66
2023/11/10 00:32:15;;;;;;;2.90;0.93;;;;;;;19.36;46.62;99516.19;5007048;28;20029;-66
2023/11/10 00:34:40;;;;;;;2.47;0.82;;;;;;;19.35;46.15;99519.81;5016573;28;20621;-67
2023/11/10 00:37:06;;;;;;;2.80;0.80;;;;;;;19.35;46.26;99514.53;5017227;28;20037;-66
2023/11/10 00:39:31;;;;;;;3.13;1.00;;;;;;;19.34;46.50;99520.78;5007236;28;20328;-67
2023/11/10 00:41:58;;;;;;;2.05;0.90;;;;;;;19.32;46.38;99523.59;5002163;28;20102;-67
2023/11/10 00:44:24;;;;;;;2.95;0.85;;;;;;;19.32;46.18;99528.06;5008992;28;20029;-67
2023/11/10 00:46:50;;;;;;;2.75;0.80;;;;;;;19.31;46.15;99524.59;5006328;28;20042;-65
2023/11/10 00:49:16;;;;;;;1.50;0.70;;;;;;;19.30;46.21;99524.75;5013634;28;20087;-67
2023/11/10 00:51:41;;;;;;;2.78;0.82;;;;;;;19.28;46.48;99518.78;5014942;28;20034;-66
2023/11/10 00:54:06;;;;;;;3.10;0.80;;;;;;;19.30;46.43;99530.03;5016784;28;20041;-66
2023/11/10 00:56:33;;;;;;;1.95;0.80;;;;;;;19.29;46.41;99528.38;5019944;28;20054;-67
2023/11/10 00:58:59;;;;;;;3.05;0.80;;;;;;;19.29;46.12;99528.38;5006383;28;20038;-66
2023/11/10 01:01:25;;;;;;;2.75;0.98;;;;;;;19.27;46.08;99527.72;5003247;28;21277;-66
2023/11/10 01:03:50;;;;;;;2.38;0.80;;;;;;;19.27;46.28;99527.72;5004707;28;20140;-66
2023/11/10 01:06:16;;;;;;;1.98;0.70;;;;;;;19.26;46.48;99526.06;5019350;28;20103;-66
2023/11/10 01:08:41;;;;;;;2.25;0.70;;;;;;;19.26;46.15;99520.78;5008775;28;20038;-65
2023/11/10 01:11:07;;;;;;;2.30;0.80;;;;;;;19.27;46.28;99522.44;5000142;28;20030;-67
2023/11/10 01:13:34;;;;;;;1.38;0.70;;;;;;;19.25;46.11;99519.13;5001232;28;20037;-66
2023/11/10 01:16:01;;;;;;;2.47;0.80;;;;;;;19.24;46.16;99517.50;5015362;28;20033;-66
2023/11/10 01:18:26;;;;;;;5.05;1.00;;;;;;;19.22;46.13;99515.00;5010500;28;20099;-67
2023/11/10 01:20:51;;;;;;;2.30;0.70;;;;;;;19.23;46.18;99511.38;4999754;28;20532;-66
2023/11/10 01:23:17;;;;;;;3.77;0.97;;;;;;;19.21;46.02;99506.25;4999677;28;20030;-67
2023/11/10 01:25:42;;;;;;;3.50;0.95;;;;;;;19.21;46.26;99508.06;5003564;28;20687;-66
2023/11/10 01:28:07;;;;;;;2.03;0.88;;;;;;;19.21;46.12;99505.44;5000032;28;20049;-66
2023/11/10 01:30:33;;;;;;;2.67;0.70;;;;;;;19.20;46.26;99501.97;5017318;28;20048;-67
2023/11/10 01:32:58;;;;;;;2.95;0.90;;;;;;;19.20;45.87;99511.69;5018782;28;20044;-67
2023/11/10 01:35:24;;;;;;;3.33;0.88;;;;;;;19.20;45.86;99506.41;5010019;28;20524;-66
2023/11/10 01:37:49;;;;;;;2.92;0.82;;;;;;;19.18;45.98;99509.25;4999794;28;20037;-66
2023/11/10 01:40:14;;;;;;;2.78;1.00;;;;;;;19.18;45.79;99513.69;4999493;28;20129;-66
2023/11/10 01:42:40;;;;;;;3.38;0.90;;;;;;;19.17;45.80;99510.22;5010016;28;20030;-68
2023/11/10 01:45:06;;;;;;;3.75;1.05;;;;;;;19.16;46.12;99505.91;5003422;28;20033;-66
2023/11/10 01:47:31;;;;;;;3.15;1.08;;;;;;;19.16;46.03;99502.47;5013959;28;20095;-67
2023/11/10 01:49:57;;;;;;;2.17;0.80;;;;;;;19.16;46.06;99499.81;5005208;28;20029;-66
2023/11/10 01:52:25;;;;;;;3.05;0.80;;;;;;;19.14;46.01;99499.97;5014897;28;20041;-66
2023/11/10 01:54:50;;;;;;;1.95;0.80;;;;;;;19.14;45.74;99499.97;5017972;28;20029;-66
2023/11/10 01:57:15;;;;;;;2.80;0.77;;;;;;;19.13;46.10;99497.50;5014825;28;20046;-65
2023/11/10 01:59:45;;;;;;;2.13;0.70;;;;;;;19.13;45.94;99494.84;5018195;28;20045;-66
2023/11/10 02:02:10;;;;;;;3.25;0.85;;;;;;;19.13;45.80;99498.31;4999105;28;20573;-66
2023/11/10 02:04:36;;;;;;;1.85;0.75;;;;;;;19.13;45.43;99495.69;5017383;28;20044;-66
2023/11/10 02:07:02;;;;;;;2.70;0.80;;;;;;;19.13;45.51;99502.78;5006698;28;20383;-67
2023/11/10 02:09:28;;;;;;;2.15;0.80;;;;;;;19.11;45.81;99492.38;4998526;28;20065;-65
2023/11/10 02:11:53;;;;;;;2.20;0.70;;;;;;;19.10;45.90;99484.63;5018126;28;20029;-66
2023/11/10 02:14:19;;;;;;;2.70;1.10;;;;;;;19.09;45.58;99489.09;4997160;28;20034;-66
2023/11/10 02:16:44;;;;;;;2.83;0.80;;;;;;;19.10;45.86;99492.53;5017441;28;20033;-66
2023/11/10 02:19:16;;;;;;;4.90;1.10;;;;;;;19.10;45.70;99487.25;5018905;28;20183;-66
2023/11/10 02:21:42;;;;;;;2.45;0.70;;;;;;;19.08;45.64;99495.34;5013254;28;20041;-67
2023/11/10 02:24:10;;;;;;;2.33;0.60;;;;;;;19.08;45.49;99486.63;4998923;28;20137;-66
2023/11/10 02:26:36;;;;;;;2.55;0.80;;;;;;;19.08;45.57;99491.91;4999120;28;20032;-66
2023/11/10 02:29:02;;;;;;;2.72;0.75;;;;;;;19.07;45.38;99493.69;4999344;28;20034;-66
2023/11/10 02:31:27;;;;;;;2.08;0.60;;;;;;;19.07;45.32;99490.22;4999438;28;20152;-66
2023/11/10 02:33:53;;;;;;;2.78;0.60;;;;;;;19.06;45.40;99486.78;5018198;28;20258;-66
2023/11/10 02:36:20;;;;;;;4.10;1.05;;;;;;;19.05;45.46;99489.56;5012731;28;20030;-66
2023/11/10 02:38:46;;;;;;;1.77;0.70;;;;;;;19.04;45.40;99491.38;5014917;28;20044;-66
2023/11/10 02:41:11;;;;;;;3.00;0.70;;;;;;;19.05;45.38;99492.22;5007894;28;20121;-67
2023/11/10 02:43:37;;;;;;;2.10;0.90;;;;;;;19.05;45.48;99500.13;5005077;28;20076;-66
2023/11/10 02:46:02;;;;;;;2.38;0.70;;;;;;;19.03;45.48;99495.03;5002160;28;20046;-66
2023/11/10 02:48:28;;;;;;;2.22;0.70;;;;;;;19.02;45.53;99496.81;5010211;28;20034;-66
2023/11/10 02:50:54;;;;;;;1.63;0.70;;;;;;;19.01;45.30;99495.19;5002424;28;20077;-67
2023/11/10 02:53:20;;;;;;;1.80;0.60;;;;;;;19.00;45.08;99500.63;5003161;28;20042;-66
2023/11/10 02:55:45;;;;;;;1.73;0.60;;;;;;;19.01;45.41;99499.66;5009730;28;20061;-67
2023/11/10 02:58:11;;;;;;;2.97;0.70;;;;;;;19.00;45.35;99495.34;5003805;28;20033;-66
2023/11/10 03:00:37;;;;;;;1.90;0.70;;;;;;;18.99;45.12;99504.25;5005781;28;20076;-67
2023/11/10 03:03:02;;;;;;;1.83;0.65;;;;;;;18.98;45.09;99505.25;5007648;28;20036;-66
2023/11/10 03:05:28;;;;;;;2.63;0.85;;;;;;;18.98;44.93;99503.44;5006186;28;20498;-66
2023/11/10 03:07:54;;;;;;;1.48;0.70;;;;;;;18.98;45.03;99510.53;5005572;28;20034;-67
2023/11/10 03:10:19;;;;;;;2.10;0.67;;;;;;;18.98;44.90;99497.31;5017528;28;20860;-67
2023/11/10 03:12:45;;;;;;;2.33;0.80;;;;;;;18.96;45.28;99496.66;5012012;28;20294;-67
2023/11/10 03:15:10;;;;;;;1.45;0.60;;;;;;;18.94;45.20;99499.44;5015941;28;20939;-66
2023/11/10 03:17:36;;;;;;;1.98;0.70;;;;;;;18.94;45.19;99496.00;5021914;28;20055;-66
2023/11/10 03:20:02;;;;;;;2.42;0.70;;;;;;;18.95;44.98;99497.66;5020123;28;20409;-67
2023/11/10 03:22:28;;;;;;;3.42;0.80;;;;;;;18.94;44.96;99499.44;5021857;28;20235;-66
2023/11/10 03:24:53;;;;;;;2.38;0.70;;;;;;;18.94;44.69;99488.88;5016782;28;20508;-66
2023/11/10 03:27:19;;;;;;;1.27;0.68;;;;;;;18.93;45.10;99489.91;5007453;28;20040;-66
2023/11/10 03:29:44;;;;;;;1.30;0.60;;;;;;;18.93;44.85;99495.19;5022212;28;20038;-66
2023/11/10 03:32:10;;;;;;;2.95;0.90;;;;;;;18.92;44.94;99490.88;5000299;28;20045;-66
2023/11/10 03:34:42;;;;;;;2.47;0.70;;;;;;;18.92;44.98;99505.91;5002010;28;20474;-67
2023/11/10 03:37:09;;;;;;;2.17;0.80;;;;;;;18.92;44.98;99495.34;5013612;28;20306;-66
2023/11/10 03:39:38;;;;;;;1.67;0.70;;;;;;;18.91;45.25;99494.50;5018614;28;20080;-66
2023/11/10 03:42:03;;;;;;;2.15;0.70;;;;;;;18.90;44.99;99487.56;5017786;28;20032;-66
2023/11/10 03:44:29;;;;;;;2.42;0.65;;;;;;;18.90;44.93;99486.72;5007027;28;20944;-67
2023/11/10 03:46:55;;;;;;;2.92;0.90;;;;;;;18.90;44.86;99492.84;5012578;28;20030;-67
2023/11/10 03:49:21;;;;;;;3.75;0.80;;;;;;;18.90;45.23;99489.38;5013997;28;20033;-66
2023/11/10 03:51:47;;;;;;;2.50;0.90;;;;;;;18.87;44.82;99485.25;5006741;28;20034;-65
2023/11/10 03:54:13;;;;;;;1.95;0.77;;;;;;;18.86;44.75;99486.25;5020614;28;20041;-67
2023/11/10 03:56:39;;;;;;;1.67;0.60;;;;;;;18.85;44.96;99485.41;5016566;28;20053;-67
2023/11/10 03:59:08;;;;;;;1.88;0.60;;;;;;;18.85;44.95;99488.06;5021006;28;20091;-67
2023/11/10 04:01:34;;;;;;;1.77;0.60;;;;;;;18.87;44.83;99497.59;5020629;28;20539;-67
2023/11/10 04:04:00;;;;;;;1.83;0.80;;;;;;;18.85;44.83;99501.25;5020277;28;20043;-68
2023/11/10 04:06:25;;;;;;;1.63;0.68;;;;;;;18.84;44.95;99494.31;5021424;28;20029;-67
2023/11/10 04:08:51;;;;;;;2.63;0.60;;;;;;;18.84;44.69;99499.59;5020365;28;20069;-66
2023/11/10 04:11:16;;;;;;;3.00;0.90;;;;;;;18.84;44.78;99499.59;5020845;28;20034;-66
2023/11/10 04:13:41;;;;;;;2.13;0.70;;;;;;;18.84;44.81;99502.22;5019673;28;20080;-67
2023/11/10 04:16:15;;;;;;;2.47;0.80;;;;;;;18.83;44.81;99503.22;5020586;28;20250;-67
2023/11/10 04:18:41;;;;;;;2.17;0.60;;;;;;;18.83;44.79;99499.72;5020950;28;20052;-67
2023/11/10 04:21:06;;;;;;;1.57;0.53;;;;;;;18.83;44.70;99500.56;5019941;28;20033;-66
2023/11/10 04:23:31;;;;;;;2.08;0.73;;;;;;;18.83;44.43;99508.50;5020850;28;20320;-66
2023/11/10 04:25:56;;;;;;;1.40;0.60;;;;;;;18.83;44.75;99505.00;5020611;28;20120;-66
2023/11/10 04:28:24;;;;;;;2.33;0.80;;;;;;;18.83;44.79;99512.91;5020156;28;20275;-67
2023/11/10 04:30:49;;;;;;;1.85;0.50;;;;;;;18.84;44.75;99512.78;5020210;28;20324;-67
2023/11/10 04:33:14;;;;;;;2.38;0.70;;;;;;;18.82;44.79;99504.19;5020320;28;20037;-66
2023/11/10 04:35:40;;;;;;;3.17;0.80;;;;;;;18.83;44.75;99511.13;5020483;28;20523;-67
2023/11/10 04:38:08;;;;;;;1.42;0.57;;;;;;;18.83;44.79;99512.91;5019937;28;20258;-66
2023/11/10 04:40:33;;;;;;;1.27;0.70;;;;;;;18.82;44.64;99506.81;5020181;28;20029;-67
2023/11/10 04:42:58;;;;;;;2.60;0.60;;;;;;;18.82;44.61;99517.38;5020401;28;20033;-66
2023/11/10 04:45:26;;;;;;;2.67;0.70;;;;;;;18.81;44.57;99514.91;5020338;28;20558;-66
2023/11/10 04:47:53;;;;;;;2.10;0.70;;;;;;;18.79;44.53;99504.50;5020346;28;20057;-65
2023/11/10 04:50:18;;;;;;;2.40;0.65;;;;;;;18.78;44.40;99502.03;5019664;28;20040;-68
2023/11/10 04:52:44;;;;;;;2.60;0.65;;;;;;;18.79;44.59;99501.88;5018911;28;20041;-66
2023/11/10 04:55:11;;;;;;;1.60;0.65;;;;;;;18.78;44.53;99505.47;5019545;28;20629;-66
2023/11/10 04:57:36;;;;;;;1.90;0.63;;;;;;;18.77;44.54;99501.22;5019281;28;20037;-67
2023/11/10 05:00:02;;;;;;;2.33;0.57;;;;;;;18.74;44.36;99495.41;5018812;28;20383;-66
2023/11/10 05:02:28;;;;;;;2.10;0.60;;;;;;;18.76;44.47;99493.47;5019448;28;20035;-66
2023/11/10 05:04:54;;;;;;;2.08;0.68;;;;;;;18.76;44.54;99502.19;5019299;28;20040;-66
2023/11/10 05:07:19;;;;;;;2.42;0.82;;;;;;;18.76;44.31;99504.00;5020062;28;20069;-68
2023/11/10 05:09:44;;;;;;;1.30;0.57;;;;;;;18.75;44.33;99503.16;5020001;28;20550;-68
2023/11/10 05:12:10;;;;;;;2.78;0.70;;;;;;;18.75;44.39;99499.72;5019283;28;20037;-66
2023/11/10 05:14:39;;;;;;;1.65;0.60;;;;;;;18.74;44.55;99501.53;5019052;28;20037;-67
2023/11/10 05:17:05;;;;;;;2.78;0.75;;;;;;;18.75;44.23;99499.72;5019159;28;20075;-67
2023/11/10 05:19:30;;;;;;;3.67;0.70;;;;;;;18.74;44.52;99501.53;5019314;28;20087;-66
2023/11/10 05:21:55;;;;;;;3.17;0.63;;;;;;;18.73;44.55;99494.59;5019352;28;20029;-66
2023/11/10 05:24:21;;;;;;;1.87;0.60;;;;;;;18.73;44.38;99494.59;5019459;28;20263;-68
2023/11/10 05:26:46;;;;;;;2.70;0.70;;;;;;;18.72;44.23;99500.84;5018817;28;20689;-68
2023/11/10 05:29:11;;;;;;;1.38;0.65;;;;;;;18.71;44.25;99503.66;5019518;28;20033;-67
2023/11/10 05:31:36;;;;;;;3.97;1.10;;;;;;;18.71;44.42;99499.22;5018930;28;20799;-67
2023/11/10 05:34:03;;;;;;;1.88;0.70;;;;;;;18.70;44.59;99497.56;5019202;28;20519;-65
2023/11/10 05:36:29;;;;;;;2.88;0.88;;;;;;;18.70;44.47;99504.66;5019600;28;20041;-65
2023/11/10 05:38:54;;;;;;;2.30;0.63;;;;;;;18.70;44.52;99502.00;5018935;28;20033;-65
2023/11/10 05:41:19;;;;;;;1.65;0.63;;;;;;;18.69;44.36;99509.09;5019689;28;20041;-66
2023/11/10 05:43:46;;;;;;;1.90;0.60;;;;;;;18.68;44.16;99504.81;5019322;28;20033;-66
2023/11/10 05:46:12;;;;;;;2.92;0.68;;;;;;;18.68;44.21;99505.63;5018601;28;20025;-66
2023/11/10 05:48:37;;;;;;;2.55;0.73;;;;;;;18.65;44.26;99498.03;5018814;28;20049;-67
2023/11/10 05:51:03;;;;;;;2.58;0.60;;;;;;;18.66;44.11;99510.25;5001027;28;20122;-66
2023/11/10 05:53:28;;;;;;;2.22;0.70;;;;;;;18.65;44.18;99516.50;5018577;28;20029;-67
2023/11/10 05:55:54;;;;;;;1.63;0.57;;;;;;;18.65;44.42;99513.03;5018976;28;20057;-65
2023/11/10 05:58:19;;;;;;;1.37;0.50;;;;;;;18.65;44.18;99503.31;5019221;28;20037;-66
2023/11/10 06:00:44;;;;;;;1.88;0.60;;;;;;;18.64;44.20;99506.09;5017984;28;20273;-66
2023/11/10 06:03:09;;;;;;;1.45;0.60;;;;;;;18.65;44.27;99523.59;5016326;28;20037;-67
2023/11/10 06:05:35;;;;;;;1.52;0.60;;;;;;;18.65;44.29;99523.59;5018646;28;20040;-66
2023/11/10 06:08:01;;;;;;;2.25;0.70;;;;;;;18.65;44.29;99521.78;5011426;28;20033;-66
2023/11/10 06:10:26;;;;;;;1.38;0.55;;;;;;;18.66;44.27;99520.00;5001075;28;20598;-66
2023/11/10 06:12:51;;;;;;;1.70;0.70;;;;;;;18.66;44.66;99522.63;5014550;28;20132;-67
2023/11/10 06:15:19;;;;;;;1.98;0.50;;;;;;;18.68;44.47;99523.28;5000393;28;20508;-66
2023/11/10 06:17:44;;;;;;;3.00;0.60;;;;;;;18.68;44.77;99529.38;5011473;28;20038;-67
2023/11/10 06:20:10;;;;;;;4.20;0.70;;;;;;;18.71;44.91;99535.31;5012693;28;20037;-67
2023/11/10 06:22:37;;;;;;;2.65;0.70;;;;;;;18.69;45.27;99527.56;5009270;28;20041;-67
2023/11/10 06:25:06;;;;;;;3.60;0.90;;;;;;;18.70;45.54;99528.41;5007583;28;20307;-67
2023/11/10 06:27:31;;;;;;;2.42;0.85;;;;;;;18.71;45.59;99527.41;5009084;28;20033;-68
2023/11/10 06:29:57;;;;;;;3.15;0.70;;;;;;;18.72;45.43;99527.25;5005586;28;20048;-66
2023/11/10 06:32:22;;;;;;;1.58;0.50;;;;;;;18.72;45.47;99524.59;5001081;28;20057;-67
2023/11/10 06:34:48;;;;;;;1.58;0.60;;;;;;;18.75;45.64;99528.75;5015589;28;20061;-66
2023/11/10 06:37:15;;;;;;;1.58;0.50;;;;;;;18.76;45.48;99531.22;4997093;28;20398;-67
2023/11/10 06:39:41;;;;;;;2.25;0.50;;;;;;;18.78;45.79;99536.34;5013379;28;20025;-66
2023/11/10 06:42:06;;;;;;;2.38;0.75;;;;;;;18.78;45.71;99542.44;5007623;28;20033;-67
2023/11/10 06:44:32;;;;;;;2.20;0.63;;;;;;;18.79;45.77;99540.66;5016075;28;20116;-68
2023/11/10 06:46:59;;;;;;;2.30;0.95;;;;;;;18.80;45.94;99540.47;5013230;28;20041;-68
2023/11/10 06:49:24;;;;;;;1.83;0.50;;;;;;;18.81;45.90;99542.13;5000065;28;20180;-69
2023/11/10 06:51:49;;;;;;;1.80;0.50;;;;;;;18.84;45.51;99546.28;5010236;28;20109;-66
2023/11/10 06:54:15;;;;;;;1.63;0.40;;;;;;;18.86;45.50;99546.94;5001722;28;20670;-67
2023/11/10 06:56:40;;;;;;;1.20;0.50;;;;;;;18.86;45.51;99536.38;5011103;28;20270;-66
2023/11/10 06:59:06;;;;;;;2.00;0.67;;;;;;;18.89;45.64;99540.53;5011664;28;20040;-67
2023/11/10 07:01:31;;;;;;;3.30;0.70;;;;;;;18.90;45.62;99532.44;5017474;28;20270;-67
2023/11/10 07:03:57;;;;;;;2.03;0.60;;;;;;;18.91;45.55;99533.28;5006858;28;20040;-66
2023/11/10 07:06:22;;;;;;;1.85;0.60;;;;;;;18.93;45.82;99533.94;5011635;28;20032;-67
2023/11/10 07:08:48;;;;;;;2.53;0.50;;;;;;;18.95;45.46;99534.63;5011108;28;20539;-66
2023/11/10 07:11:14;;;;;;;1.80;0.68;;;;;;;18.95;45.58;99532.78;5012724;28;20026;-67
2023/11/10 07:13:39;;;;;;;1.80;0.60;;;;;;;19.00;45.15;99529.66;5008744;28;20490;-66
2023/11/10 07:16:06;;;;;;;2.50;0.70;;;;;;;18.98;45.45;99532.47;5014932;28;20038;-67
2023/11/10 07:18:32;;;;;;;3.00;0.80;;;;;;;19.01;45.38;99526.88;5001121;28;20049;-67
2023/11/10 07:20:58;;;;;;;1.95;0.70;;;;;;;19.02;45.49;99520.56;5000603;28;20034;-66
2023/11/10 07:23:23;;;;;;;2.72;1.05;;;;;;;18.97;45.44;99509.69;5010943;28;20033;-66
2023/11/10 07:25:50;;;;;;;1.52;0.50;;;;;;;19.04;45.39;99525.69;5020689;28;20057;-67
2023/11/10 07:28:16;;;;;;;2.50;0.60;;;;;;;19.05;45.55;99523.91;5010224;28;20034;-67
2023/11/10 07:30:43;;;;;;;1.85;0.70;;;;;;;19.06;45.27;99533.47;5011652;28;20030;-67
2023/11/10 07:33:09;;;;;;;3.00;0.90;;;;;;;19.04;45.29;99528.34;5003742;28;20029;-67
2023/11/10 07:35:35;;;;;;;1.83;0.50;;;;;;;19.02;44.97;99533.78;5008981;28;20034;-65
2023/11/10 07:38:01;;;;;;;1.63;0.60;;;;;;;19.04;44.90;99536.25;5014656;28;20516;-67
2023/11/10 07:40:26;;;;;;;2.27;0.80;;;;;;;19.02;45.27;99530.31;5010959;28;20056;-66
2023/11/10 07:42:51;;;;;;;2.15;0.80;;;;;;;19.03;45.21;99530.16;5010292;28;20646;-67
2023/11/10 07:45:17;;;;;;;2.67;0.90;;;;;;;19.03;45.35;99532.81;5006178;28;20117;-67
2023/11/10 07:47:46;;;;;;;2.55;0.85;;;;;;;19.02;45.83;99530.31;5009296;28;20033;-68
2023/11/10 07:50:13;;;;;;;2.10;0.65;;;;;;;19.05;45.83;99518.63;5011867;28;20033;-65
2023/11/10 07:52:39;;;;;;;4.20;0.80;;;;;;;19.05;45.72;99516.78;5002878;28;21064;-68
2023/11/10 07:55:05;;;;;;;2.90;0.90;;;;;;;19.07;46.12;99512.16;5009991;28;20034;-67
2023/11/10 07:57:32;;;;;;;4.95;1.08;;;;;;;19.08;45.90;99518.28;5021165;28;20041;-66
2023/11/10 07:59:59;;;;;;;4.28;0.82;;;;;;;19.08;46.00;99508.56;5020762;28;20030;-67
2023/11/10 08:02:24;;;;;;;2.55;0.88;;;;;;;19.08;45.97;99510.38;5021536;28;20506;-66
2023/11/10 08:04:50;;;;;;;4.45;1.00;;;;;;;19.09;45.86;99518.13;5021267;28;20145;-65
2023/11/10 08:07:15;;;;;;;5.47;0.90;;;;;;;19.10;45.90;99513.66;5020575;28;20558;-65
2023/11/10 08:09:40;;;;;;;3.50;0.80;;;;;;;19.09;46.24;99515.50;5020602;28;20120;-64
2023/11/10 08:12:07;;;;;;;2.03;0.55;;;;;;;19.09;46.11;99512.00;5019459;28;20297;-66
2023/11/10 08:14:32;;;;;;;6.18;0.95;;;;;;;19.09;46.00;99517.28;5002596;28;20865;-66
2023/11/10 08:16:57;;;;;;;4.22;1.80;;;;;;;19.10;45.95;99511.03;5020848;28;20037;-64
2023/11/10 08:19:23;;;;;;;2.85;0.70;;;;;;;19.09;46.04;99510.22;5002998;28;20037;-63
2023/11/10 08:21:48;;;;;;;3.75;0.93;;;;;;;19.09;46.19;99510.22;5020294;28;20405;-65
2023/11/10 08:24:14;;;;;;;4.35;0.90;;;;;;;19.09;46.49;99512.84;5020216;28;20041;-63
2023/11/10 08:26:40;;;;;;;6.70;0.85;;;;;;;19.10;46.06;99508.38;5020974;28;20033;-64
2023/11/10 08:29:09;;;;;;;6.32;0.90;;;;;;;19.10;46.62;99505.75;5019351;28;20052;-64
2023/11/10 08:31:34;;;;;;;2.95;0.90;;;;;;;19.11;46.19;99512.69;5020369;28;20171;-63
2023/11/10 08:34:00;;;;;;;3.20;0.80;;;;;;;19.11;46.41;99502.94;5016618;28;21419;-65
2023/11/10 08:36:25;;;;;;;4.35;0.80;;;;;;;19.11;46.43;99502.94;5018709;28;20262;-67
2023/11/10 08:38:50;;;;;;;4.32;1.10;;;;;;;19.12;46.23;99501.13;5020616;28;20029;-67
2023/11/10 08:41:16;;;;;;;3.47;0.73;;;;;;;19.13;46.16;99503.59;5002307;28;20072;-65
2023/11/10 08:43:42;;;;;;;3.10;0.85;;;;;;;19.12;46.18;99495.84;5020613;28;20555;-66
2023/11/10 08:46:07;;;;;;;4.15;0.82;;;;;;;19.10;46.25;99497.81;5020361;28;20038;-66
2023/11/10 08:48:33;;;;;;;3.70;0.87;;;;;;;19.08;46.27;99498.00;5020371;28;20037;-65
2023/11/10 08:50:58;;;;;;;2.97;0.85;;;;;;;19.11;46.05;99507.41;5019149;28;20275;-65
2023/11/10 08:53:24;;;;;;;7.00;1.10;;;;;;;19.12;46.02;99504.59;5020343;28;20503;-66
2023/11/10 08:55:49;;;;;;;2.55;0.70;;;;;;;19.10;46.24;99500.47;5019278;28;20059;-65
2023/11/10 08:58:16;;;;;;;2.92;0.73;;;;;;;19.12;45.92;99504.59;5020117;28;20822;-66
2023/11/10 09:00:41;;;;;;;2.40;0.80;;;;;;;19.12;45.90;99501.97;4983308;28;20540;-64
2023/11/10 09:03:06;;;;;;;2.58;0.68;;;;;;;19.12;45.92;99501.13;5018930;28;20033;-66
2023/11/10 09:05:32;;;;;;;2.87;0.80;;;;;;;19.10;46.02;99496.00;5020368;28;20412;-65
2023/11/10 09:07:57;;;;;;;3.67;1.17;;;;;;;19.08;46.27;99498.00;5019444;28;20318;-66
2023/11/10 09:10:23;;;;;;;4.68;1.08;;;;;;;19.10;46.26;99498.66;5020981;28;20271;-67
2023/11/10 09:12:48;;;;;;;3.35;0.90;;;;;;;19.07;46.55;99501.59;5020484;28;20071;-65
2023/11/10 09:15:14;;;;;;;2.88;0.70;;;;;;;19.09;46.48;99501.44;5020126;28;20037;-66
2023/11/10 09:17:40;;;;;;;4.65;0.90;;;;;;;19.09;46.41;99507.56;5019148;28;20446;-68
2023/11/10 09:20:07;;;;;;;4.05;0.98;;;;;;;19.13;46.07;99500.13;5013836;28;20599;-69
2023/11/10 09:22:35;;;;;;;4.43;0.88;;;;;;;19.14;46.03;99505.25;5017549;28;20192;-69
2023/11/10 09:25:02;;;;;;;3.15;0.95;;;;;;;19.17;46.21;99504.94;4999916;28;20554;-71
2023/11/10 09:27:27;;;;;;;3.33;0.80;;;;;;;19.19;46.43;99499.50;5006888;28;20037;-69
2023/11/10 09:29:53;;;;;;;4.00;0.90;;;;;;;19.18;46.27;99498.69;5012004;28;20065;-69
2023/11/10 09:32:18;;;;;;;2.60;0.65;;;;;;;19.19;46.36;99504.78;5001708;28;20069;-71
2023/11/10 09:34:43;;;;;;;4.70;0.93;;;;;;;19.19;46.33;99502.13;5008423;28;20030;-70
2023/11/10 09:37:09;;;;;;;2.55;0.80;;;;;;;19.19;46.46;99496.84;5001647;28;20043;-72
2023/11/10 09:39:34;;;;;;;2.92;0.90;;;;;;;19.17;46.38;99497.00;4989648;28;20048;-71
2023/11/10 09:42:08;;;;;;;4.18;1.00;;;;;;;19.16;46.35;99492.72;5008399;28;20726;-70
2023/11/10 09:44:56;;;;;;;3.13;1.43;;;;;;;19.19;46.41;99489.75;5007433;28;20111;-68
2023/11/10 09:47:23;;;;;;;4.75;0.90;;;;;;;19.24;46.49;99488.44;5007707;28;20782;-70
2023/11/10 09:49:49;;;;;;;3.47;0.85;;;;;;;19.29;46.38;99486.13;5003782;28;20025;-69
2023/11/10 09:52:20;;;;;;;3.47;1.00;;;;;;;19.29;46.39;99488.75;4993639;28;20364;-70
2023/11/10 09:54:50;;;;;;;5.93;0.80;;;;;;;19.32;46.53;99485.78;5008663;28;21211;-73
2023/11/10 09:57:17;;;;;;;2.88;0.90;;;;;;;19.32;46.39;99488.44;4999659;28;20053;-73
2023/11/10 09:59:44;;;;;;;2.88;0.93;;;;;;;19.30;46.62;99487.78;4997796;28;20047;-68
2023/11/10 10:02:11;;;;;;;3.75;1.05;;;;;;;19.30;46.52;99498.34;5016211;28;20123;-69
2023/11/10 10:04:38;;;;;;;3.85;0.93;;;;;;;19.27;46.55;99486.28;5003584;28;20033;-71
2023/11/10 10:07:08;;;;;;;2.15;0.75;;;;;;;19.26;46.69;99491.72;4999844;28;20033;-67
2023/11/10 10:09:33;;;;;;;4.20;1.10;;;;;;;19.26;46.79;99483.81;4998165;28;20030;-68
2023/11/10 10:11:58;;;;;;;5.47;1.10;;;;;;;19.26;46.79;99486.44;4997738;28;20109;-70
2023/11/10 10:14:24;;;;;;;4.17;0.90;;;;;;;19.26;46.97;99486.44;4996319;28;20281;-68
2023/11/10 10:16:53;;;;;;;3.22;0.90;;;;;;;19.26;46.86;99489.91;4996813;28;20798;-69
2023/11/10 10:19:29;;;;;;;3.53;1.52;;;;;;;19.24;47.29;99491.91;4994912;28;20034;-73
2023/11/10 10:21:55;;;;;;;3.75;1.00;;;;;;;19.22;47.35;99485.97;5000121;28;20044;-70
2023/11/10 10:24:21;;;;;;;3.47;1.00;;;;;;;19.24;47.46;99497.19;4999951;28;20049;-69
2023/11/10 10:26:47;;;;;;;3.92;1.15;;;;;;;19.24;47.26;99477.88;4996611;28;20045;-68
2023/11/10 10:29:13;;;;;;;2.63;0.80;;;;;;;19.26;47.33;99486.44;4987355;28;20037;-67
2023/11/10 10:31:40;;;;;;;4.65;1.13;;;;;;;19.27;47.28;99474.91;4995409;28;20042;-68
2023/11/10 10:34:06;;;;;;;3.25;0.80;;;;;;;19.28;47.10;99487.94;4997633;28;20080;-68
2023/11/10 10:36:32;;;;;;;3.65;0.90;;;;;;;19.28;47.12;99471.25;4997555;28;20042;-67
2023/11/10 10:39:00;;;;;;;4.43;1.10;;;;;;;19.27;47.25;99472.25;4995193;28;20065;-68
2023/11/10 10:41:26;;;;;;;1.95;0.80;;;;;;;19.26;47.04;99467.97;4996477;28;20038;-67
2023/11/10 10:43:52;;;;;;;3.80;0.90;;;;;;;19.24;47.47;99462.03;4997961;28;20039;-68
2023/11/10 10:46:19;;;;;;;3.65;0.90;;;;;;;19.22;47.47;99464.81;5007293;28;20072;-68
2023/11/10 10:48:48;;;;;;;3.40;1.08;;;;;;;19.23;47.26;99465.66;4998672;28;20513;-68
2023/11/10 10:51:18;;;;;;;3.05;0.80;;;;;;;19.23;47.12;99466.47;5008150;28;20541;-70
2023/11/10 10:53:44;;;;;;;2.53;0.80;;;;;;;19.22;47.38;99467.47;4998335;28;20057;-70
2023/11/10 10:56:12;;;;;;;3.38;1.00;;;;;;;19.20;47.48;99472.06;5006488;28;20546;-69
2023/11/10 10:58:38;;;;;;;3.40;0.88;;;;;;;19.23;47.62;99477.03;5010739;28;20045;-67
2023/11/10 11:01:07;;;;;;;2.95;0.88;;;;;;;19.24;47.40;99468.13;5011868;28;20076;-66
2023/11/10 11:04:15;;;;;;;3.42;0.95;;;;;;;19.26;47.54;99467.97;5012430;28;20111;-67
2023/11/10 11:06:49;;;;;;;5.22;1.48;;;;;;;19.27;47.44;99466.97;5002204;28;20076;-68
2023/11/10 11:09:39;;;;;;;2.65;1.00;;;;;;;19.24;47.81;99468.13;5011405;28;20533;-68
2023/11/10 11:12:42;;;;;;;3.58;0.82;;;;;;;19.25;47.56;99467.16;5011546;28;20571;-67
2023/11/10 11:15:21;;;;;;;4.25;1.05;;;;;;;19.25;47.67;99464.50;5010933;28;20030;-66
2023/11/10 11:17:58;;;;;;;2.80;0.63;;;;;;;19.27;47.46;99461.69;5011879;28;20100;-68
2023/11/10 11:20:24;;;;;;;2.88;0.80;;;;;;;19.24;47.96;99464.66;5012978;28;20045;-68
2023/11/10 11:22:49;;;;;;;2.80;0.85;;;;;;;19.24;47.88;99462.03;4993602;28;20063;-66
2023/11/10 11:25:15;;;;;;;2.28;0.80;;;;;;;19.25;47.72;99467.16;4993377;28;20389;-67
2023/11/10 11:27:40;;;;;;;2.42;0.77;;;;;;;19.24;47.60;99462.84;5012085;28;20100;-65
2023/11/10 11:30:10;;;;;;;2.70;0.80;;;;;;;19.25;47.47;99458.38;5010438;28;20057;-69